createdAt,value
2022-09-23T08:29:04.651Z,12.22
2022-09-23T08:31:08.429Z,12.44
2022-09-23T08:33:12.381Z,12.60
2022-09-23T08:35:14.809Z,12.63
2022-09-23T08:37:17.464Z,12.69
2022-09-23T08:39:20.845Z,12.57
2022-09-23T08:41:34.983Z,12.70
2022-09-23T08:43:38.276Z,12.76
2022-09-23T08:45:42.222Z,13.02
2022-09-23T08:47:52.168Z,13.25
2022-09-23T08:50:04.857Z,13.28
2022-09-23T08:52:17.400Z,13.40
2022-09-23T08:54:19.783Z,13.54
2022-09-23T08:56:24.054Z,13.64
2022-09-23T08:58:44.700Z,13.72
2022-09-23T09:01:17.774Z,13.65
2022-09-23T09:03:24.675Z,13.76
2022-09-23T09:05:29.051Z,13.64
2022-09-23T09:07:37.056Z,13.74
2022-09-23T09:09:47.599Z,13.66
2022-09-23T09:11:56.118Z,13.67
2022-09-23T09:14:22.523Z,13.81
2022-09-23T09:16:58.838Z,13.91
2022-09-23T09:19:02.534Z,14.11
2022-09-23T09:21:14.312Z,14.20
2022-09-23T09:23:31.944Z,14.29
2022-09-23T09:25:50.928Z,14.26
2022-09-23T09:27:55.911Z,14.52
2022-09-23T09:30:01.356Z,14.47
2022-09-23T09:32:43.999Z,14.35
2022-09-23T09:34:55.989Z,14.40
2022-09-23T09:37:20.750Z,14.47
2022-09-23T09:39:26.099Z,14.61
2022-09-23T09:41:31.565Z,14.88
2022-09-23T09:43:35.386Z,15.27
2022-09-23T09:46:13.280Z,15.50
2022-09-23T09:48:17.985Z,15.58
2022-09-23T09:50:43.790Z,15.51
2022-09-23T09:52:46.023Z,15.76
2022-09-23T09:54:51.047Z,16.00
2022-09-23T09:56:54.504Z,15.76
2022-09-23T09:59:08.181Z,15.86
2022-09-23T10:01:23.833Z,15.62
2022-09-23T10:03:33.722Z,15.46
2022-09-23T10:05:45.190Z,15.55
2022-09-23T10:07:48.611Z,15.62
2022-09-23T10:09:51.921Z,15.52
2022-09-23T10:12:18.717Z,15.66
2022-09-23T10:14:21.157Z,15.93
2022-09-23T10:16:23.876Z,15.88
2022-09-23T10:18:37.467Z,16.21
2022-09-23T10:20:40.145Z,16.49
2022-09-23T10:22:43.340Z,16.83
2022-09-23T10:24:52.681Z,16.98
2022-09-23T10:27:02.697Z,17.01
2022-09-23T10:29:26.330Z,17.03
2022-09-23T10:31:33.704Z,17.41
2022-09-23T10:33:49.985Z,17.30
2022-09-23T10:35:57.258Z,17.01
2022-09-23T10:38:00.618Z,17.57
2022-09-23T10:40:33.749Z,17.66
2022-09-23T10:43:32.114Z,17.96
2022-09-23T10:45:58.263Z,17.57
2022-09-23T10:48:06.921Z,17.51
2022-09-23T10:50:42.034Z,17.16
2022-09-23T10:52:47.026Z,17.08
2022-09-23T10:55:15.316Z,17.08
2022-09-23T10:57:53.229Z,16.74
2022-09-23T11:00:25.168Z,16.89
2022-09-23T11:02:39.503Z,16.87
2022-09-23T11:04:54.829Z,17.21
2022-09-23T11:07:22.985Z,17.24
2022-09-23T11:10:02.914Z,16.89
2022-09-23T11:12:24.184Z,16.65
2022-09-23T11:14:26.387Z,17.19
2022-09-23T11:16:29.343Z,18.26
2022-09-23T11:18:47.217Z,19.72
2022-09-23T11:21:26.801Z,19.69
2022-09-23T11:23:57.601Z,19.60
2022-09-23T11:25:59.999Z,22.05
2022-09-23T11:28:20.325Z,22.90
2022-09-23T11:30:31.043Z,23.52
2022-09-23T11:32:42.817Z,23.60
2022-09-23T11:35:48.554Z,23.58
2022-09-23T11:38:05.472Z,23.57
2022-09-23T11:40:31.306Z,24.35
2022-09-23T11:42:40.587Z,25.02
2022-09-23T11:44:50.052Z,25.75
2022-09-23T11:47:14.071Z,24.78
2022-09-23T11:49:24.790Z,24.04
2022-09-23T11:52:02.617Z,22.08
2022-09-23T11:54:28.639Z,23.01
2022-09-23T11:56:57.052Z,24.75
2022-09-23T11:59:40.716Z,23.08
2022-09-23T12:01:55.404Z,21.22
2022-09-23T12:04:25.845Z,19.34
2022-09-23T12:06:40.041Z,19.30
2022-09-23T12:08:42.260Z,21.95
2022-09-23T12:10:58.622Z,24.56
2022-09-23T12:13:13.187Z,26.01
2022-09-23T12:15:59.183Z,27.92
2022-09-23T12:18:25.063Z,28.63
2022-09-23T12:20:36.377Z,28.39
2022-09-23T12:23:16.191Z,28.08
2022-09-23T12:25:35.817Z,27.78
2022-09-23T12:27:45.697Z,28.27
2022-09-23T12:29:56.243Z,27.64
2022-09-23T12:31:59.792Z,29.20
2022-09-23T12:34:25.550Z,29.61
2022-09-23T12:36:36.817Z,29.33
2022-09-23T12:38:39.520Z,29.28
2022-09-23T12:40:43.676Z,28.90
2022-09-23T12:42:47.791Z,27.67
2022-09-23T12:44:50.685Z,27.35
2022-09-23T12:47:14.756Z,25.89
2022-09-23T12:49:29.096Z,24.69
2022-09-23T12:51:36.168Z,23.94
2022-09-23T12:53:38.329Z,23.42
2022-09-23T12:55:41.561Z,23.97
2022-09-23T12:57:44.139Z,22.08
2022-09-23T12:59:59.031Z,21.65
2022-09-23T13:02:29.717Z,21.28
2022-09-23T13:05:10.043Z,20.46
2022-09-23T13:07:16.728Z,19.99
2022-09-23T13:12:39.478Z,19.03
2022-09-23T13:14:46.469Z,18.86
2022-09-23T13:16:49.962Z,18.83
2022-09-23T13:18:55.542Z,18.68
2022-09-23T13:20:58.011Z,19.23
2022-09-23T13:23:06.096Z,18.91
2022-09-23T13:25:20.629Z,18.40
2022-09-23T13:27:34.255Z,18.63
2022-09-23T13:29:58.371Z,18.66
2022-09-23T13:32:02.024Z,18.47
2022-09-23T13:34:07.849Z,18.23
2022-09-23T13:36:17.185Z,18.49
2022-09-23T13:38:28.134Z,18.16
2022-09-23T13:40:31.740Z,18.12
2022-09-23T13:42:37.870Z,17.75
2022-09-23T13:44:40.860Z,17.44
2022-09-23T13:46:48.491Z,17.41
2022-09-23T13:48:55.205Z,17.48
2022-09-23T13:50:57.989Z,17.32
2022-09-23T13:53:06.095Z,17.40
2022-09-23T13:55:28.604Z,17.73
2022-09-23T13:57:32.376Z,17.75
2022-09-23T13:59:41.395Z,18.10
2022-09-23T14:01:43.666Z,18.28
2022-09-23T14:03:46.331Z,18.41
2022-09-23T14:05:49.396Z,18.62
2022-09-23T14:07:53.604Z,18.52
2022-09-23T14:09:56.378Z,18.76
2022-09-23T14:12:01.112Z,18.52
2022-09-23T14:14:07.529Z,18.06
2022-09-23T14:16:15.050Z,17.56
2022-09-23T14:18:27.431Z,17.60
2022-09-23T14:20:29.819Z,18.03
2022-09-23T14:22:32.393Z,18.01
2022-09-23T14:24:36.955Z,17.78
2022-09-23T14:26:41.671Z,17.74
2022-09-23T14:28:44.586Z,17.72
2022-09-23T14:30:48.099Z,17.62
2022-09-23T14:32:51.232Z,17.54
2022-09-23T14:34:59.500Z,17.66
2022-09-23T14:37:34.065Z,17.69
2022-09-23T14:39:36.819Z,17.80
2022-09-23T14:41:45.679Z,17.64
2022-09-23T14:43:49.798Z,17.59
2022-09-23T14:45:59.413Z,17.58
2022-09-23T14:48:34.971Z,17.55
2022-09-23T14:50:39.440Z,17.47
2022-09-23T14:52:52.323Z,17.35
2022-09-23T14:54:54.896Z,17.21
2022-09-23T14:56:57.789Z,16.83
2022-09-23T14:59:00.740Z,17.34
2022-09-23T15:01:27.971Z,17.35
2022-09-23T15:03:30.862Z,17.08
2022-09-23T15:05:46.302Z,17.43
2022-09-23T15:07:52.018Z,17.52
2022-09-23T15:09:54.963Z,17.41
2022-09-23T15:12:06.864Z,17.65
2022-09-23T15:14:36.074Z,17.82
2022-09-23T15:16:33.118Z,17.72
2022-09-23T15:18:38.464Z,17.60
2022-09-23T15:20:44.314Z,17.39
2022-09-23T15:22:53.925Z,17.52
2022-09-23T15:25:17.312Z,17.65
2022-09-23T15:27:30.983Z,17.78
2022-09-23T15:29:33.733Z,17.72
2022-09-23T15:31:37.378Z,17.86
2022-09-23T15:33:40.546Z,17.88
2022-09-23T15:35:48.480Z,18.08
2022-09-23T15:37:51.638Z,17.91
2022-09-23T15:39:54.212Z,17.84
2022-09-23T15:41:57.616Z,17.60
2022-09-23T15:44:11.513Z,17.49
2022-09-23T15:46:19.313Z,17.63
2022-09-23T15:48:29.234Z,17.60
2022-09-23T15:50:34.127Z,17.43
2022-09-23T15:52:37.149Z,17.41
2022-09-23T15:54:39.944Z,17.41
2022-09-23T15:56:42.191Z,17.14
2022-09-23T15:58:44.666Z,17.18
2022-09-23T16:00:56.086Z,17.14
2022-09-23T16:02:58.999Z,16.89
2022-09-23T16:05:07.691Z,16.73
2022-09-23T16:07:17.120Z,16.62
2022-09-23T16:09:19.697Z,16.65
2022-09-23T16:11:25.483Z,16.50
2022-09-23T16:13:27.778Z,16.58
2022-09-23T16:15:33.428Z,16.54
2022-09-23T16:17:37.778Z,16.58
2022-09-23T16:19:40.074Z,16.59
2022-09-23T16:21:44.030Z,16.39
2022-09-23T16:23:49.309Z,16.59
2022-09-23T16:25:51.755Z,16.55
2022-09-23T16:27:55.693Z,16.62
2022-09-23T16:29:57.976Z,16.80
2022-09-23T16:32:01.138Z,16.60
2022-09-23T16:34:03.734Z,16.45
2022-09-23T16:36:09.833Z,16.31
2022-09-23T16:38:12.051Z,16.38
2022-09-23T16:40:16.707Z,16.27
2022-09-23T16:42:18.966Z,16.26
2022-09-23T16:44:21.413Z,16.19
2022-09-23T16:46:24.368Z,16.30
2022-09-23T16:48:26.655Z,16.34
2022-09-23T16:50:29.616Z,16.32
2022-09-23T16:52:32.105Z,16.23
2022-09-23T16:54:37.439Z,16.22
2022-09-23T16:56:44.303Z,16.61
2022-09-23T16:58:49.368Z,16.59
2022-09-23T17:01:15.833Z,16.38
2022-09-23T17:03:36.669Z,16.17
2022-09-23T17:05:39.090Z,16.47
2022-09-23T17:07:41.287Z,16.43
2022-09-23T17:09:43.690Z,16.47
2022-09-23T17:11:53.019Z,16.21
2022-09-23T17:13:55.295Z,16.06
2022-09-23T17:15:57.747Z,16.15
2022-09-23T17:18:00.499Z,16.04
2022-09-23T17:20:05.506Z,16.01
2022-09-23T17:22:07.746Z,15.79
2022-09-23T17:24:10.299Z,15.72
2022-09-23T17:26:13.261Z,15.90
2022-09-23T17:28:16.029Z,15.72
2022-09-23T17:30:18.847Z,15.50
2022-09-23T17:32:21.278Z,15.58
2022-09-23T17:34:24.135Z,15.60
2022-09-23T17:36:27.384Z,15.72
2022-09-23T17:38:29.856Z,15.62
2022-09-23T17:40:32.098Z,15.56
2022-09-23T17:42:41.074Z,15.51
2022-09-23T17:44:43.263Z,15.51
2022-09-23T17:46:45.558Z,15.59
2022-09-23T17:48:48.639Z,15.39
2022-09-23T17:50:58.831Z,15.34
2022-09-23T17:53:01.078Z,15.37
2022-09-23T17:55:03.908Z,15.52
2022-09-23T17:57:06.234Z,15.39
2022-09-23T17:59:15.527Z,15.27
2022-09-23T18:01:23.981Z,15.28
2022-09-23T18:03:28.481Z,15.12
2022-09-23T18:05:30.961Z,14.93
2022-09-23T18:07:33.176Z,14.97
2022-09-23T18:09:35.689Z,15.04
2022-09-23T18:11:43.969Z,14.81
2022-09-23T18:13:54.929Z,14.81
2022-09-23T18:16:02.626Z,14.59
2022-09-23T18:18:06.126Z,14.41
2022-09-23T18:20:09.006Z,14.29
2022-09-23T18:22:11.704Z,14.49
2022-09-23T18:26:36.711Z,14.31
2022-09-23T18:28:39.676Z,14.45
2022-09-23T18:30:52.650Z,14.53
2022-09-23T18:32:54.848Z,14.49
2022-09-23T18:34:57.856Z,14.33
2022-09-23T18:37:00.118Z,14.27
2022-09-23T18:39:02.430Z,13.96
2022-09-23T18:41:05.307Z,14.13
2022-09-23T18:43:08.574Z,14.12
2022-09-23T18:45:11.924Z,14.04
2022-09-23T18:47:34.369Z,14.26
2022-09-23T18:49:55.137Z,14.28
2022-09-23T18:52:00.780Z,14.38
2022-09-23T18:54:06.451Z,14.31
2022-09-23T18:56:14.598Z,14.05
2022-09-23T18:58:16.854Z,13.99
2022-09-23T19:00:19.886Z,14.07
2022-09-23T19:02:22.111Z,14.16
2022-09-23T19:04:26.207Z,14.06
2022-09-23T19:06:31.296Z,14.10
2022-09-23T19:08:34.848Z,14.15
2022-09-23T19:10:37.062Z,14.15
2022-09-23T19:12:39.569Z,13.83
2022-09-23T19:14:44.706Z,13.80
2022-09-23T19:16:49.061Z,13.96
2022-09-23T19:18:52.200Z,14.05
2022-09-23T19:20:54.791Z,13.58
2022-09-23T19:22:57.008Z,13.65
2022-09-23T19:24:59.832Z,13.74
2022-09-23T19:27:03.389Z,13.75
2022-09-23T19:29:08.321Z,13.36
2022-09-23T19:31:14.015Z,13.47
2022-09-23T19:33:16.330Z,13.42
2022-09-23T19:35:18.623Z,13.47
2022-09-23T19:37:21.307Z,13.10
2022-09-23T19:39:26.334Z,13.40
2022-09-23T19:41:32.342Z,13.43
2022-09-23T19:43:38.663Z,13.21
2022-09-23T19:45:43.023Z,13.42
2022-09-23T19:47:45.302Z,13.10
2022-09-23T19:49:48.695Z,13.21
2022-09-23T19:51:50.994Z,13.16
2022-09-23T19:53:53.511Z,13.20
2022-09-23T19:55:56.471Z,13.24
2022-09-23T19:57:58.671Z,13.12
2022-09-23T20:00:01.218Z,13.10
2022-09-23T20:02:03.809Z,12.67
2022-09-23T20:04:06.451Z,12.80
2022-09-23T20:06:08.818Z,12.92
2022-09-23T20:08:11.123Z,12.86
2022-09-23T20:10:14.160Z,12.85
2022-09-23T20:12:17.691Z,12.74
2022-09-23T20:14:20.139Z,12.59
2022-09-23T20:16:22.965Z,12.59
2022-09-23T20:18:25.568Z,12.71
2022-09-23T20:20:27.885Z,12.63
2022-09-23T20:22:33.591Z,12.52
2022-09-23T20:24:35.957Z,12.62
2022-09-23T20:26:57.075Z,12.70
2022-09-23T20:29:01.360Z,12.79
2022-09-23T20:31:03.653Z,12.53
2022-09-23T20:33:05.890Z,12.42
2022-09-23T20:35:08.855Z,12.52
2022-09-23T20:37:11.273Z,12.47
2022-09-23T20:39:13.625Z,12.43
2022-09-23T20:41:16.444Z,12.46
2022-09-23T20:43:20.300Z,12.45
2022-09-23T20:45:22.504Z,12.49
2022-09-23T20:47:25.121Z,12.61
2022-09-23T20:49:27.569Z,12.52
2022-09-23T20:51:29.871Z,12.65
2022-09-23T20:53:32.737Z,12.46
2022-09-23T20:55:35.158Z,12.63
2022-09-23T20:57:37.407Z,12.54
2022-09-23T20:59:40.703Z,12.45
2022-09-23T21:01:43.336Z,12.60
2022-09-23T21:03:48.277Z,12.46
2022-09-23T21:05:50.812Z,12.44
2022-09-23T21:07:53.217Z,12.30
2022-09-23T21:09:55.429Z,12.20
2022-09-23T21:11:58.041Z,12.18
2022-09-23T21:14:02.568Z,11.94
2022-09-23T21:16:08.320Z,12.13
2022-09-23T21:18:15.023Z,12.20
2022-09-23T21:20:18.593Z,11.93
2022-09-23T21:22:20.774Z,11.75
2022-09-23T21:26:47.384Z,11.97
2022-09-23T21:28:52.052Z,11.86
2022-09-23T21:30:58.540Z,11.74
2022-09-23T21:33:01.933Z,11.90
2022-09-23T21:35:04.305Z,11.90
2022-09-23T21:37:06.912Z,11.73
2022-09-23T21:39:10.542Z,11.61
2022-09-23T21:41:13.143Z,11.78
2022-09-23T21:43:16.688Z,11.70
2022-09-23T21:45:19.204Z,11.80
2022-09-23T21:47:21.449Z,11.66
2022-09-23T21:49:24.003Z,11.73
2022-09-23T21:51:28.525Z,11.57
2022-09-23T21:53:32.671Z,11.44
2022-09-23T21:55:35.180Z,11.64
2022-09-23T21:57:37.686Z,11.59
2022-09-23T21:59:40.385Z,11.50
